セブ の空港の天気 - METARとTAF

マクタン・セブ国際空港 ( RPVM / CEB ) - フィリピン セブ / ラプ=ラプ
飛行場実況気象(Metar)
観測時間02/20 23:00 PHT (02/20 15:00 UTC)
風向・風速北西 2m/s
視程10km以上
天気現象
少しの雲 雲底高度 610m
全天の8割程度の雲 雲底高度 3050m
気温25℃
湿度89%
気圧1014hPa
METARRPVM 201500Z 32004KT 9999 FEW020 BKN100 25/23 Q1014 NOSIG RMK A2994
過去の天気等 Google飛行場航空写真 Wunderground天気予報

過去48時間のMETAR

飛行場予報(TAF)
発表時間: 2/20 19:00 PHT (2/20 11:00 UTC)
予報対象時間: 20日20時 PHT ~ 22日2時 PHT
風向・風速北北東 3m/s
視程10km以上
少しの雲 雲底高度 610m
全天の8割程度の雲 雲底高度 3,050m
20日20時 PHT ~ 21日2時 PHT に一時的に
風向・風速東北東 6m/s
視程9,000m
天気現象弱いしゅう雨
全天の4割程度の雲 雲底高度 610m
全天を覆う雲 雲底高度 2,740m
21日2時 PHT ~ 21日8時 PHT に一時的に
風向・風速東 6m/s
少しの雲 雲底高度 610m
全天を覆う雲 雲底高度 3,050m
TAF RPVM 201100Z 2012/2118 03006KT 9999 FEW020 BKN100
TEMPO 2012/2018 07011KT 9000 -SHRA SCT020 OVC090
TEMPO 2018/2024 08011KT FEW020 OVC100